createdAt,value
2023-01-04T00:01:35.278Z,6.67
2023-01-04T00:04:04.354Z,6.07
2023-01-04T00:06:39.110Z,4.73
2023-01-04T00:09:19.758Z,4.10
2023-01-04T00:12:00.346Z,6.40
2023-01-04T00:14:29.118Z,5.73
2023-01-04T00:16:58.131Z,5.17
2023-01-04T00:19:27.059Z,4.37
2023-01-04T00:21:55.569Z,5.80
2023-01-04T00:24:24.237Z,4.13
2023-01-04T00:26:59.598Z,6.40
2023-01-04T00:29:30.877Z,4.77
2023-01-04T00:32:03.209Z,8.10
2023-01-04T00:34:33.338Z,4.30
2023-01-04T00:37:01.975Z,5.67
2023-01-04T00:39:30.783Z,5.10
2023-01-04T00:42:06.532Z,5.33
2023-01-04T00:44:36.560Z,6.00
2023-01-04T00:47:09.186Z,3.63
2023-01-04T00:49:38.530Z,3.80
2023-01-04T00:52:08.181Z,8.13
2023-01-04T00:54:37.295Z,8.40
2023-01-04T00:57:09.238Z,10.37
2023-01-04T00:59:38.123Z,5.63
2023-01-04T01:02:06.972Z,4.53
2023-01-04T01:04:37.397Z,4.30
2023-01-04T01:07:05.826Z,4.87
2023-01-04T01:09:34.987Z,5.03
2023-01-04T01:12:03.414Z,4.77
2023-01-04T01:14:33.291Z,4.83
2023-01-04T01:17:01.736Z,6.10
2023-01-04T01:19:32.323Z,4.73
2023-01-04T01:22:00.939Z,7.00
2023-01-04T01:24:29.795Z,4.47
2023-01-04T01:26:59.242Z,5.80
2023-01-04T01:29:28.006Z,5.57
2023-01-04T01:31:58.227Z,6.33
2023-01-04T01:34:27.374Z,5.73
2023-01-04T01:36:56.134Z,7.27
2023-01-04T01:39:24.725Z,6.00
2023-01-04T01:41:53.162Z,8.60
2023-01-04T01:45:02.636Z,5.90
2023-01-04T01:47:41.266Z,7.20
2023-01-04T01:50:21.655Z,6.70
2023-01-04T01:52:51.558Z,10.30
2023-01-04T01:55:22.002Z,5.93
2023-01-04T01:57:52.317Z,9.73
2023-01-04T02:00:21.078Z,7.30
2023-01-04T02:02:58.683Z,6.60
2023-01-04T02:05:28.727Z,6.87
2023-01-04T02:07:59.462Z,6.70
2023-01-04T02:10:28.320Z,7.10
2023-01-04T02:12:56.862Z,8.17
2023-01-04T02:15:29.745Z,10.73
2023-01-04T02:18:07.224Z,8.27
2023-01-04T02:20:45.239Z,10.47
2023-01-04T02:23:48.937Z,10.17
2023-01-04T02:27:09.616Z,8.90
2023-01-04T02:30:02.995Z,5.90
2023-01-04T02:32:46.461Z,7.80
2023-01-04T02:35:20.757Z,10.40
2023-01-04T02:37:56.243Z,7.73
2023-01-04T02:40:32.472Z,6.00
2023-01-04T02:43:24.366Z,10.43
2023-01-04T02:45:57.043Z,11.03
2023-01-04T02:48:40.963Z,8.43
2023-01-04T02:51:27.938Z,9.03
2023-01-04T02:53:57.335Z,7.77
2023-01-04T02:56:38.469Z,9.13
2023-01-04T02:59:29.521Z,10.83
2023-01-04T03:02:25.514Z,10.40
2023-01-04T03:05:24.150Z,11.80
2023-01-04T03:07:59.004Z,10.37
2023-01-04T03:10:37.319Z,9.13
2023-01-04T03:13:09.149Z,7.40
2023-01-04T03:15:41.339Z,9.10
2023-01-04T03:18:16.246Z,10.07
2023-01-04T03:20:48.292Z,8.63
2023-01-04T03:23:38.129Z,8.07
2023-01-04T03:26:26.965Z,9.43
2023-01-04T03:29:17.538Z,8.20
2023-01-04T03:32:05.988Z,8.03
2023-01-04T03:34:52.413Z,7.97
2023-01-04T03:37:34.155Z,9.63
2023-01-04T03:40:36.052Z,9.33
2023-01-04T03:43:26.320Z,8.57
2023-01-04T03:46:16.099Z,9.47
2023-01-04T03:48:50.567Z,12.77
2023-01-04T03:51:22.960Z,8.50
2023-01-04T03:53:59.107Z,9.23
2023-01-04T03:56:29.821Z,8.10
2023-01-04T03:58:58.543Z,10.30
2023-01-04T04:01:28.574Z,11.77
2023-01-04T04:04:14.862Z,5.50
2023-01-04T04:07:00.862Z,8.87
2023-01-04T04:09:30.824Z,9.17
2023-01-04T04:11:59.707Z,7.53
2023-01-04T04:14:28.187Z,5.33
2023-01-04T04:16:56.880Z,5.57
2023-01-04T04:19:25.357Z,6.97
2023-01-04T04:21:53.734Z,7.40
2023-01-04T04:24:24.508Z,6.93
2023-01-04T04:26:56.002Z,6.07
2023-01-04T04:29:25.841Z,8.50
2023-01-04T04:31:54.619Z,7.60
2023-01-04T04:34:23.175Z,7.13
2023-01-04T04:36:51.717Z,4.40
2023-01-04T04:39:20.345Z,7.47
2023-01-04T04:41:47.843Z,9.50
2023-01-04T04:44:20.452Z,4.70
2023-01-04T04:46:49.834Z,6.47
2023-01-04T04:49:19.141Z,7.73
2023-01-04T04:51:48.290Z,5.70
2023-01-04T04:54:18.261Z,5.27
2023-01-04T04:56:46.753Z,7.30
2023-01-04T04:59:15.649Z,6.30
2023-01-04T05:01:45.655Z,5.13
2023-01-04T05:04:17.178Z,5.50
2023-01-04T05:06:46.104Z,6.30
2023-01-04T05:09:15.066Z,7.87
2023-01-04T05:12:01.579Z,8.50
2023-01-04T05:14:30.263Z,6.67
2023-01-04T05:17:01.034Z,6.67
2023-01-04T05:19:29.654Z,6.37
2023-01-04T05:21:57.956Z,5.97
2023-01-04T05:24:26.479Z,6.73
2023-01-04T05:26:55.042Z,6.10
2023-01-04T05:29:40.730Z,9.37
2023-01-04T05:32:10.608Z,9.37
2023-01-04T05:34:39.234Z,9.03
2023-01-04T05:37:07.647Z,9.80
2023-01-04T05:39:36.064Z,10.00
2023-01-04T05:42:21.693Z,10.10
2023-01-04T05:44:50.066Z,9.70
2023-01-04T05:47:20.033Z,10.90
2023-01-04T05:49:49.734Z,9.87
2023-01-04T05:52:18.359Z,10.37
2023-01-04T05:54:46.889Z,10.77
2023-01-04T05:57:16.420Z,10.87
2023-01-04T05:59:44.953Z,10.97
2023-01-04T06:02:24.573Z,8.70
2023-01-04T06:04:58.876Z,8.70
2023-01-04T06:07:28.110Z,7.37
2023-01-04T06:09:56.502Z,7.67
2023-01-04T06:12:26.524Z,7.60
2023-01-04T06:14:55.112Z,7.23
2023-01-04T06:17:25.568Z,6.40
2023-01-04T06:19:54.045Z,5.63
2023-01-04T06:22:22.800Z,7.13
2023-01-04T06:24:51.216Z,6.90
2023-01-04T06:27:19.893Z,8.63
2023-01-04T06:29:48.278Z,8.57
2023-01-04T06:32:16.753Z,8.53
2023-01-04T06:34:46.538Z,8.37
2023-01-04T06:37:15.052Z,7.47
2023-01-04T06:39:43.556Z,9.13
2023-01-04T06:42:32.747Z,8.73
2023-01-04T06:45:01.140Z,6.37
2023-01-04T06:47:29.513Z,7.07
2023-01-04T06:49:59.331Z,7.23
2023-01-04T06:52:27.688Z,6.23
2023-01-04T06:54:56.181Z,6.47
2023-01-04T06:57:25.404Z,6.50
2023-01-04T06:59:53.938Z,6.10
2023-01-04T07:02:22.552Z,7.97
2023-01-04T07:04:51.221Z,9.00
2023-01-04T07:07:21.530Z,8.13
2023-01-04T07:09:50.129Z,7.47
2023-01-04T07:12:18.968Z,9.83
2023-01-04T07:14:47.373Z,7.53
2023-01-04T07:17:15.729Z,6.70
2023-01-04T07:19:44.557Z,7.37
2023-01-04T07:22:13.274Z,5.43
2023-01-04T07:24:43.973Z,5.53
2023-01-04T07:27:12.987Z,6.20
2023-01-04T07:29:43.990Z,5.97
2023-01-04T07:32:14.184Z,5.93
2023-01-04T07:34:43.437Z,7.23
2023-01-04T07:37:13.220Z,4.33
2023-01-04T07:39:44.002Z,5.60
2023-01-04T07:42:12.826Z,7.77
2023-01-04T07:44:41.721Z,8.03
2023-01-04T07:47:10.592Z,10.67
2023-01-04T07:49:39.263Z,13.07
2023-01-04T07:52:12.175Z,12.03
2023-01-04T07:54:42.493Z,11.43
2023-01-04T07:57:10.919Z,10.47
2023-01-04T07:59:39.308Z,7.60
2023-01-04T08:02:08.633Z,8.60
2023-01-04T08:04:37.741Z,7.50
2023-01-04T08:07:08.924Z,9.90
2023-01-04T08:09:37.833Z,8.90
2023-01-04T08:12:07.931Z,9.37
2023-01-04T08:14:36.341Z,8.47
2023-01-04T08:17:04.889Z,10.80
2023-01-04T08:19:33.924Z,9.60
2023-01-04T08:22:02.421Z,10.20
2023-01-04T08:24:30.967Z,12.30
2023-01-04T08:26:59.744Z,9.63
2023-01-04T08:29:34.994Z,7.93
2023-01-04T08:32:11.985Z,8.27
2023-01-04T08:34:40.701Z,6.77
2023-01-04T08:37:09.546Z,7.70
2023-01-04T08:39:41.951Z,8.40
2023-01-04T08:42:20.899Z,6.93
2023-01-04T08:44:58.703Z,10.20
2023-01-04T08:47:29.681Z,7.57
2023-01-04T08:49:58.836Z,7.33
2023-01-04T08:52:27.863Z,7.67
2023-01-04T08:54:56.292Z,8.17
2023-01-04T08:57:25.536Z,7.87
2023-01-04T08:59:56.509Z,8.90
2023-01-04T09:02:27.800Z,9.53
2023-01-04T09:05:03.348Z,10.77
2023-01-04T09:07:36.542Z,7.70
2023-01-04T09:10:09.420Z,8.00
2023-01-04T09:12:38.678Z,7.63
2023-01-04T09:15:09.883Z,7.90
2023-01-04T09:17:57.935Z,8.97
2023-01-04T09:20:30.328Z,7.23
2023-01-04T09:22:59.862Z,7.10
2023-01-04T09:25:28.689Z,11.67
2023-01-04T09:28:06.012Z,9.60
2023-01-04T09:30:36.505Z,6.53
2023-01-04T09:33:05.991Z,8.33
2023-01-04T09:35:38.569Z,5.43
2023-01-04T09:38:07.579Z,5.60
2023-01-04T09:40:48.935Z,5.80
2023-01-04T09:43:22.633Z,6.97
2023-01-04T09:45:58.730Z,8.63
2023-01-04T09:48:32.747Z,6.30
2023-01-04T09:51:08.618Z,5.30
2023-01-04T09:53:44.445Z,5.93
2023-01-04T09:56:25.891Z,5.90
2023-01-04T09:58:59.170Z,6.60
2023-01-04T10:01:37.464Z,7.47
2023-01-04T10:04:14.564Z,6.30
2023-01-04T10:06:43.922Z,7.83
2023-01-04T10:09:18.296Z,5.77
2023-01-04T10:12:13.004Z,4.60
2023-01-04T10:14:56.927Z,4.83
2023-01-04T10:18:51.884Z,5.03
2023-01-04T10:24:02.343Z,5.90
2023-01-04T10:26:39.599Z,5.30
2023-01-04T10:29:49.041Z,5.73
2023-01-04T10:32:33.500Z,7.43
2023-01-04T10:35:20.060Z,4.43
2023-01-04T10:37:53.109Z,3.50
2023-01-04T10:40:26.354Z,5.47
2023-01-04T10:43:03.896Z,6.10
2023-01-04T10:45:41.874Z,6.77
2023-01-04T10:48:20.179Z,6.80
2023-01-04T10:51:07.324Z,6.13
2023-01-04T10:53:47.441Z,5.60
2023-01-04T10:56:32.746Z,5.83
2023-01-04T10:59:09.005Z,4.53
2023-01-04T11:01:52.821Z,8.13
2023-01-04T11:04:31.227Z,5.30
2023-01-04T11:07:09.627Z,6.53
2023-01-04T11:09:47.754Z,6.53
2023-01-04T11:12:25.101Z,6.20
2023-01-04T11:14:55.643Z,4.30
2023-01-04T11:17:45.149Z,5.07
2023-01-04T11:20:15.501Z,4.03
2023-01-04T11:22:59.429Z,5.03
2023-01-04T11:25:35.851Z,5.10
2023-01-04T11:28:26.242Z,5.07
2023-01-04T11:31:10.439Z,4.97
2023-01-04T11:34:08.867Z,3.83
2023-01-04T11:36:44.395Z,3.60
2023-01-04T11:39:32.798Z,4.83
2023-01-04T11:42:12.270Z,4.57
2023-01-04T11:45:03.671Z,4.60
2023-01-04T11:47:33.463Z,5.43
2023-01-04T11:50:02.829Z,6.17
2023-01-04T11:52:48.313Z,5.93
2023-01-04T11:55:29.563Z,6.53
2023-01-04T11:58:19.028Z,6.40
2023-01-04T12:00:57.432Z,6.07
2023-01-04T12:03:33.476Z,4.67
2023-01-04T12:06:05.792Z,5.57
2023-01-04T12:08:45.352Z,6.53
2023-01-04T12:11:26.787Z,6.40
2023-01-04T12:13:58.952Z,4.90
2023-01-04T12:16:45.703Z,6.67
2023-01-04T12:19:19.519Z,6.73
2023-01-04T12:21:52.115Z,5.97
2023-01-04T12:24:29.044Z,7.20
2023-01-04T12:27:03.868Z,6.23
2023-01-04T12:29:58.861Z,8.03
2023-01-04T12:32:46.439Z,6.87
2023-01-04T12:35:58.758Z,7.17
2023-01-04T12:39:29.176Z,7.07
2023-01-04T12:42:29.956Z,8.00
2023-01-04T12:45:21.485Z,6.93
2023-01-04T12:48:12.052Z,8.97
2023-01-04T12:51:32.351Z,7.97
2023-01-04T12:54:32.421Z,7.90
2023-01-04T12:57:30.659Z,8.90
2023-01-04T13:00:08.161Z,9.50
2023-01-04T13:02:49.346Z,10.47
2023-01-04T13:05:57.505Z,10.97
2023-01-04T13:08:27.892Z,10.47
2023-01-04T13:10:58.489Z,10.90
2023-01-04T13:13:48.985Z,10.33
2023-01-04T13:16:33.570Z,15.70
2023-01-04T13:19:12.965Z,10.87
2023-01-04T13:21:49.075Z,9.67
2023-01-04T13:24:28.445Z,11.93
2023-01-04T13:26:58.784Z,15.07
2023-01-04T13:29:40.390Z,10.13
2023-01-04T13:32:23.279Z,5.40
2023-01-04T13:35:08.350Z,4.07
2023-01-04T13:37:50.061Z,3.10
2023-01-04T13:40:28.013Z,3.03
2023-01-04T13:43:15.165Z,3.23
2023-01-04T13:46:09.027Z,2.77
2023-01-04T13:48:42.422Z,3.10
2023-01-04T13:51:20.693Z,3.03
2023-01-04T13:54:01.695Z,2.53
2023-01-04T13:56:35.244Z,2.50
2023-01-04T13:59:05.048Z,3.27
2023-01-04T14:01:39.887Z,1.93
2023-01-04T14:04:19.215Z,2.17
2023-01-04T14:07:01.942Z,1.63
2023-01-04T14:09:41.741Z,1.60
2023-01-04T14:12:17.582Z,2.30
2023-01-04T14:14:59.739Z,1.30
2023-01-04T14:17:53.653Z,0.97
2023-01-04T14:20:53.190Z,2.03
2023-01-04T14:23:33.498Z,0.93
2023-01-04T14:26:10.177Z,3.50
2023-01-04T14:28:50.355Z,1.20
2023-01-04T14:31:27.464Z,1.60
2023-01-04T14:34:04.884Z,1.53
2023-01-04T14:36:44.736Z,2.80
2023-01-04T14:39:32.550Z,1.57
2023-01-04T14:42:02.473Z,1.60
2023-01-04T14:44:48.697Z,3.10
2023-01-04T14:47:19.095Z,2.70
2023-01-04T14:49:53.328Z,5.73
2023-01-04T14:52:28.847Z,5.63
2023-01-04T14:55:00.237Z,2.37
2023-01-04T14:57:38.152Z,2.40
2023-01-04T15:00:35.101Z,2.17
2023-01-04T15:03:08.295Z,1.83
2023-01-04T15:05:53.823Z,2.77
2023-01-04T15:08:28.115Z,1.90
2023-01-04T15:11:05.455Z,3.57
2023-01-04T15:13:40.109Z,3.27
2023-01-04T15:16:16.451Z,3.10
2023-01-04T15:18:54.095Z,4.77
2023-01-04T15:21:26.892Z,5.23
2023-01-04T15:24:02.619Z,2.10
2023-01-04T15:26:42.704Z,1.67
2023-01-04T15:29:14.759Z,2.77
2023-01-04T15:31:58.772Z,1.70
2023-01-04T15:34:46.615Z,3.80
2023-01-04T15:37:23.510Z,2.30
2023-01-04T15:39:56.859Z,3.17
2023-01-04T15:42:47.998Z,2.70
2023-01-04T15:45:29.709Z,4.07
2023-01-04T15:48:06.580Z,4.57
2023-01-04T15:50:40.038Z,6.00
2023-01-04T15:53:20.251Z,3.83
2023-01-04T15:55:49.081Z,4.57
2023-01-04T15:58:26.057Z,4.13
2023-01-04T16:01:01.229Z,4.27
2023-01-04T16:03:36.498Z,3.53
2023-01-04T16:06:09.408Z,6.53
2023-01-04T16:08:39.866Z,8.80
2023-01-04T16:11:14.694Z,5.70
2023-01-04T16:13:50.332Z,7.23
2023-01-04T16:16:31.451Z,7.40
2023-01-04T16:19:09.537Z,8.40
2023-01-04T16:21:45.398Z,13.50
2023-01-04T16:24:45.306Z,11.17
2023-01-04T16:27:15.115Z,9.63
2023-01-04T16:29:44.260Z,12.30
2023-01-04T16:32:20.603Z,11.67
2023-01-04T16:34:52.212Z,8.80
2023-01-04T16:37:23.810Z,9.33
2023-01-04T16:40:12.893Z,9.70
2023-01-04T16:42:51.824Z,8.03
2023-01-04T16:45:26.099Z,11.43
2023-01-04T16:47:56.757Z,10.50
2023-01-04T16:50:27.553Z,11.40
2023-01-04T16:52:56.246Z,11.00
2023-01-04T16:55:26.682Z,18.00
2023-01-04T16:57:55.760Z,12.73
2023-01-04T17:00:25.373Z,15.30
2023-01-04T17:02:55.627Z,14.17
2023-01-04T17:05:26.199Z,16.17
2023-01-04T17:08:03.926Z,14.83
2023-01-04T17:10:40.897Z,10.97
2023-01-04T17:13:20.320Z,16.23
2023-01-04T17:15:51.549Z,12.83
2023-01-04T17:18:22.827Z,10.57
2023-01-04T17:21:11.140Z,10.90
2023-01-04T17:24:02.207Z,13.00
2023-01-04T17:26:38.238Z,11.87
2023-01-04T17:29:19.353Z,15.77
2023-01-04T17:31:54.642Z,12.20
2023-01-04T17:34:24.547Z,13.63
2023-01-04T17:36:58.981Z,15.53
2023-01-04T17:39:31.102Z,14.13
2023-01-04T17:42:01.781Z,11.50
2023-01-04T17:44:31.636Z,12.00
2023-01-04T17:47:02.115Z,9.17
2023-01-04T17:49:35.950Z,15.47
2023-01-04T17:52:09.131Z,9.70
2023-01-04T17:54:48.232Z,11.23
2023-01-04T17:57:19.881Z,11.27
2023-01-04T17:59:56.446Z,11.10
2023-01-04T18:05:14.374Z,11.03
2023-01-04T18:07:43.973Z,8.70
2023-01-04T18:10:27.072Z,9.73
2023-01-04T18:13:09.768Z,13.67
2023-01-04T18:16:18.349Z,12.23
2023-01-04T18:18:44.000Z,11.53
2023-01-04T18:21:28.626Z,14.53
2023-01-04T18:27:24.561Z,18.13
2023-01-04T18:29:45.315Z,16.50
2023-01-04T18:32:16.657Z,15.37
2023-01-04T18:34:54.794Z,20.27
2023-01-04T18:37:28.409Z,14.70
2023-01-04T18:39:57.901Z,17.37
2023-01-04T18:42:29.071Z,15.57
2023-01-04T18:45:10.897Z,17.97
2023-01-04T18:47:40.743Z,17.97
2023-01-04T18:50:15.805Z,18.50
2023-01-04T18:52:47.947Z,17.70
2023-01-04T18:55:21.963Z,20.60
2023-01-04T18:58:01.104Z,18.60
2023-01-04T19:00:41.985Z,20.90
2023-01-04T19:03:21.892Z,20.83
2023-01-04T19:05:53.895Z,24.53
2023-01-04T19:08:34.262Z,17.97
2023-01-04T19:11:06.511Z,20.90
2023-01-04T19:13:55.658Z,26.40
2023-01-04T19:16:32.713Z,16.73
2023-01-04T19:19:14.704Z,26.50
2023-01-04T19:21:43.404Z,20.10
2023-01-04T19:24:20.930Z,26.00
2023-01-04T19:26:56.343Z,23.33
2023-01-04T19:29:52.671Z,26.33
2023-01-04T19:32:33.398Z,25.90
2023-01-04T19:35:07.632Z,28.40
2023-01-04T19:37:40.308Z,24.93
2023-01-04T19:40:11.149Z,25.23
2023-01-04T19:42:41.840Z,30.47
2023-01-04T19:45:12.281Z,28.87
2023-01-04T19:47:42.665Z,29.77
2023-01-04T19:50:18.431Z,32.60
2023-01-04T19:52:52.116Z,38.10
2023-01-04T19:55:24.960Z,27.33
2023-01-04T19:58:03.391Z,27.57
2023-01-04T20:00:41.357Z,33.97
2023-01-04T20:03:15.852Z,38.27
2023-01-04T20:05:52.416Z,30.40
2023-01-04T20:08:26.648Z,33.77
2023-01-04T20:11:01.221Z,33.17
2023-01-04T20:13:31.685Z,26.13
2023-01-04T20:16:01.667Z,30.17
2023-01-04T20:18:32.079Z,32.33
2023-01-04T20:21:00.857Z,28.30
2023-01-04T20:23:29.957Z,30.93
2023-01-04T20:26:00.448Z,32.50
2023-01-04T20:28:29.904Z,29.93
2023-01-04T20:31:05.255Z,35.83
2023-01-04T20:33:35.369Z,29.03
2023-01-04T20:36:08.334Z,31.50
2023-01-04T20:38:40.719Z,27.03
2023-01-04T20:41:17.926Z,29.67
2023-01-04T20:43:47.352Z,35.77
2023-01-04T20:46:22.132Z,25.60
2023-01-04T20:48:55.445Z,31.00
2023-01-04T20:51:27.063Z,27.40
2023-01-04T20:54:01.884Z,29.73
2023-01-04T20:56:37.750Z,27.57
2023-01-04T20:59:09.926Z,30.07
2023-01-04T21:01:43.715Z,26.13
2023-01-04T21:04:19.142Z,28.30
2023-01-04T21:07:01.365Z,33.00
2023-01-04T21:09:46.548Z,29.90
2023-01-04T21:12:21.216Z,31.50
2023-01-04T21:14:50.880Z,30.90
2023-01-04T21:17:21.981Z,29.40
2023-01-04T21:20:00.615Z,31.30
2023-01-04T21:22:31.535Z,28.83
2023-01-04T21:25:00.963Z,31.77
2023-01-04T21:27:33.343Z,32.43
2023-01-04T21:30:04.011Z,31.77
2023-01-04T21:32:36.755Z,33.87
2023-01-04T21:35:12.025Z,27.87
2023-01-04T21:37:45.905Z,24.03
2023-01-04T21:40:18.714Z,29.17
2023-01-04T21:42:54.676Z,31.47
2023-01-04T21:45:33.031Z,29.83
2023-01-04T21:48:05.357Z,33.07
2023-01-04T21:50:40.017Z,34.40
2023-01-04T21:53:09.377Z,34.87
2023-01-04T21:55:41.202Z,30.03
2023-01-04T21:58:11.755Z,26.43
2023-01-04T22:00:44.091Z,31.40
2023-01-04T22:03:15.046Z,25.17
2023-01-04T22:05:51.606Z,35.23
2023-01-04T22:08:20.595Z,24.37
2023-01-04T22:11:20.413Z,29.03
2023-01-04T22:14:10.153Z,26.67
2023-01-04T22:16:40.950Z,25.73
2023-01-04T22:19:17.052Z,30.40
2023-01-04T22:21:47.358Z,26.87
2023-01-04T22:24:20.161Z,29.73
2023-01-04T22:26:51.084Z,31.50
2023-01-04T22:29:20.794Z,26.17
2023-01-04T22:31:54.347Z,33.20
2023-01-04T22:34:28.390Z,24.07
2023-01-04T22:37:04.802Z,29.33
2023-01-04T22:39:33.399Z,27.07
2023-01-04T22:42:08.359Z,28.10
2023-01-04T22:44:37.811Z,30.83
2023-01-04T22:47:09.938Z,25.73
2023-01-04T22:49:39.125Z,23.87
2023-01-04T22:52:11.252Z,26.50
2023-01-04T22:54:44.367Z,30.67
2023-01-04T22:57:21.359Z,25.90
2023-01-04T22:59:51.072Z,26.03
2023-01-04T23:02:21.802Z,26.80
2023-01-04T23:04:50.441Z,26.47
2023-01-04T23:07:20.771Z,31.30
2023-01-04T23:09:49.542Z,26.33
2023-01-04T23:12:20.114Z,29.63
2023-01-04T23:14:48.884Z,28.13
2023-01-04T23:17:21.129Z,28.60
2023-01-04T23:19:49.927Z,26.77
2023-01-04T23:22:20.125Z,28.20
2023-01-04T23:24:50.016Z,31.17
2023-01-04T23:27:22.161Z,25.60
2023-01-04T23:29:50.700Z,27.60
2023-01-04T23:32:20.362Z,29.37
2023-01-04T23:34:52.272Z,25.60
2023-01-04T23:37:22.509Z,31.63
2023-01-04T23:39:51.431Z,31.40
2023-01-04T23:42:20.995Z,31.27
2023-01-04T23:44:50.084Z,27.40
2023-01-04T23:47:19.189Z,28.50
2023-01-04T23:49:49.166Z,25.60
2023-01-04T23:52:17.874Z,27.13
2023-01-04T23:54:47.835Z,22.70
2023-01-04T23:57:17.299Z,27.13
2023-01-04T23:59:45.823Z,24.40
